There are no active watches, warnings or advisories for Caledonia (Vermont).

Nearby METAR Reports

 

KCDA - Lyndonville, Vermont, USA
Distance from station: ENE 11mi, 18km
Updated: Tue, 16-Oct-2018 11:55pm EDT
Overcast
Overcast
 Wind from calm
Wind: Calm
Temperature: 32°F , 0°C
Dew Point: 30°F , -1°C
Humidity: 93%
Barometer: 29.93 inHg , 1013.5 hPa
Clouds: Overcast
Visibility: 10 miles , 16 km
Cloud details: Overcast 4800 ft
2018/10/17 03:55 KCDA 170355Z AUTO 00000KT 10SM OVC048 00/M01 A2993 RMK AO2 T00001008
K1V4 - St. Johnsbury, Vermont, USA
Distance from station: ESE 12mi, 19km
Updated: Tue, 16-Oct-2018 11:54pm EDT

 
Temperature: 32°F , 0°C
Dew Point: 30°F , -1°C
Humidity: 93%
Barometer: 29.93 inHg , 1013.5 hPa
2018/10/17 03:54 K1V4 170354Z AUTO 00/M01 A2993 RMK AO1 SLP140 T00001006
 
KMVL - Morrisville, Vermont, USA
Distance from station: W 20mi, 31km
Updated: Tue, 16-Oct-2018 11:54pm EDT
Clear
Clear
 Wind from SSW
Wind: SSW 3 mph , 6 km/h
Temperature: 30°F , -1°C
Dew Point: 30°F , -1°C
Humidity: 100%
Barometer: 29.92 inHg , 1013.2 hPa
Clouds: Clear
Visibility: 10 miles , 16 km
2018/10/17 03:54 KMVL 170354Z AUTO 20003KT 10SM CLR M01/M01 A2992 RMK AO2 SLP140 T10061006
KEFK - Newport State, Vermont, USA
Distance from station: N 26mi, 42km
Updated: Tue, 16-Oct-2018 11:55pm EDT
Mostly cloudy
Mostly cloudy
 Wind from SE
Wind: SE 10 mph , 17 km/h
Temperature: 37°F , 3°C
Wind Chill: 30°F , -1°C
Dew Point: 32°F , 0°C
Humidity: 81%
Barometer: 29.90 inHg , 1012.5 hPa
Clouds: Mostly cloudy
Visibility: 10 miles , 16 km
Cloud details: Partly cloudy 4300 ft
Mostly cloudy 5000 ft
Mostly cloudy 9500 ft
2018/10/17 03:55 KEFK 170355Z AUTO 13009KT 10SM SCT043 BKN050 BKN095 03/00 A2990 RMK AO2 T00280000
 
KMPV - Montpelier/Barre, Vermont, USA
Distance from station: SW 27mi, 44km
Updated: Tue, 16-Oct-2018 11:51pm EDT
Partly cloudy
Partly cloudy
 Wind from SSW
Wind: SSW 7 mph , 11 km/h
Temperature: 43°F , 6°C
Wind Chill: 39°F , 4°C
Dew Point: 30°F , -1°C
Humidity: 61%
Barometer: 29.95 inHg , 1014.2 hPa
Clouds: Partly cloudy
Visibility: 10 miles , 16 km
Cloud details: Partly cloudy 12000 ft
2018/10/17 03:51 KMPV 170351Z AUTO 20006KT 10SM SCT120 06/M01 A2995 RMK AO2 SLP152 T00561011
KHIE - Whitefield, New Hampshire, USA
Distance from station: ESE 34mi, 55km
Updated: Tue, 16-Oct-2018 11:52pm EDT
Clear
Clear
 Wind from calm
Wind: Calm
Temperature: 28°F , -2°C
Dew Point: 27°F , -3°C
Humidity: 93%
Barometer: 29.93 inHg , 1013.5 hPa
Clouds: Clear
Visibility: 10 miles , 16 km
2018/10/17 03:52 KHIE 170352Z AUTO 00000KT 10SM CLR M02/M03 A2993 RMK AO2 SLP146 T10171033
 
KBTV - Burlington, Vermont, USA
Distance from station: W 46mi, 74km
Updated: Tue, 16-Oct-2018 11:54pm EDT
Overcast
Overcast
 Wind from S
Wind: S 10 mph , 17 km/h
Temperature: 45°F , 7°C
Wind Chill: 40°F , 4°C
Dew Point: 32°F , 0°C
Humidity: 61%
Barometer: 29.92 inHg , 1013.2 hPa
Clouds: Overcast
Visibility: 10 miles , 16 km
Cloud details: Mostly cloudy 5000 ft
Overcast 8500 ft
2018/10/17 03:54 KBTV 170354Z 18009KT 10SM BKN050 OVC085 07/00 A2992 RMK AO2 SLP133 LAST T00720000
CWFQ - Frelighsburg, Quebec, Canada
Distance from station: NW 47mi, 75km
Updated: Wed, 17-Oct-2018 12:00am EDT

 Wind from S
Wind: S 3 mph , 6 km/h
Temperature: 43°F , 6°C
Dew Point: 34°F , 1°C
Humidity: 71%
2018/10/17 04:00 CWFQ 170400Z AUTO 19003KT 06/01 RMK AO1 SLP119 T00640006 58012
 
KMWN - Mount Washington, New Hampshire, USA
Distance from station: ESE 49mi, 79km
Updated: Tue, 16-Oct-2018 11:47pm EDT
Freezing fog, Overcast
Freezing fog, Overcast
 Wind from W
Wind: W 44 mph , 70 km/h
Temperature: 21°F , -6°C
Wind Chill: -0°F , -18°C
Dew Point: 21°F , -6°C
Humidity: 100%
Summary: Freezing Fog
Clouds: Overcast
Visibility: 0 miles , 0 km
Cloud details: Overcast 0 ft
2018/10/17 03:47 KMWN 170347Z 28038KT 0SM FZFG VV000 M06/M06 RMK VRY LGT ICG
KBML - Berlin, New Hampshire, USA
Distance from station: E 51mi, 83km
Updated: Tue, 16-Oct-2018 11:52pm EDT
Clear
Clear
 Wind from calm
Wind: Calm
Temperature: 27°F , -3°C
Dew Point: 27°F , -3°C
Humidity: 100%
Barometer: 29.92 inHg , 1013.2 hPa
Clouds: Clear
Visibility: 10 miles , 16 km
2018/10/17 03:52 KBML 170352Z AUTO 00000KT 10SM CLR M03/M03 A2992 RMK AO2 SLP143 I1000 T10281033
 
KFSO - Highgate, Vermont, USA
Distance from station: NW 52mi, 84km
Updated: Tue, 16-Oct-2018 11:55pm EDT
Overcast
Overcast
 Wind from SW
Wind: SW 6 mph , 9 km/h
Temperature: 48°F , 9°C
Wind Chill: 45°F , 7°C
Dew Point: 34°F , 1°C
Humidity: 58%
Barometer: 29.90 inHg , 1012.5 hPa
Clouds: Overcast
Visibility: 10 miles , 16 km
Cloud details: Partly cloudy 5000 ft
Overcast 7500 ft
2018/10/17 03:55 KFSO 170355Z AUTO 22005KT 10SM SCT050 OVC075 09/01 A2990 RMK AO2 T00850010
CWTT - Lac Memphremagog, Quebec, Canada
Distance from station: N 53mi, 85km
Updated: Wed, 17-Oct-2018 12:00am EDT

 Wind from W
Wind: W 8 mph , 13 km/h
Temperature: 45°F , 7°C
Wind Chill: 41°F , 5°C
Dew Point: 34°F , 1°C
Humidity: 66%
2018/10/17 04:00 CWTT 170400Z AUTO 26007KT 07/01 RMK AO1 T00690009
 
K1P1 - Plymouth, New Hampshire, USA
Distance from station: SSE 55mi, 88km
Updated: Wed, 17-Oct-2018 12:15am EDT
Clear
Clear
 Wind from calm
Wind: Calm
Temperature: 30°F , -1°C
Dew Point: 30°F , -1°C
Humidity: 100%
Barometer: 29.96 inHg , 1014.6 hPa
Clouds: Clear
Visibility: 10 miles , 16 km
2018/10/17 04:15 K1P1 170415Z AUTO 00000KT 10SM CLR M01/M01 A2996 RMK AO2 T10071011
KLEB - Lebanon, New Hampshire, USA
Distance from station: S 60mi, 97km
Updated: Tue, 16-Oct-2018 11:53pm EDT
Clear
Clear
 Wind from S
Wind: S 12 mph , 19 km/h
Temperature: 39°F , 4°C
Wind Chill: 32°F , 0°C
Dew Point: 30°F , -1°C
Humidity: 70%
Barometer: 29.95 inHg , 1014.2 hPa
Clouds: Clear
Visibility: 10 miles , 16 km
2018/10/17 03:53 KLEB 170353Z AUTO 17010KT 10SM CLR 04/M01 A2995 RMK AO2 SLP145 T00391011
 
KPBG - Plattsburgh Afb, New York, USA
Distance from station: W 62mi, 100km
Updated: Tue, 16-Oct-2018 11:53pm EDT
Overcast
Overcast
 Wind from W
Wind: W 3 mph , 6 km/h
Temperature: 39°F , 4°C
Dew Point: 34°F , 1°C
Humidity: 81%
Barometer: 29.90 inHg , 1012.5 hPa
Clouds: Overcast
Visibility: 10 miles , 16 km
Cloud details: Mostly cloudy 4300 ft
Overcast 8500 ft
2018/10/17 03:53 KPBG 170353Z AUTO 26003KT 10SM BKN043 OVC085 04/01 A2990 RMK AO2 SLP127 T00390011
CWQH - Lennoxville, Quebec, Canada
Distance from station: NNE 63mi, 101km
Updated: Wed, 17-Oct-2018 12:00am EDT

 Wind from W
Wind: W 1 mph , 2 km/h
Temperature: 36°F , 2°C
Dew Point: 34°F , 1°C
Humidity: 93%
2018/10/17 04:00 CWQH 170400Z AUTO 28001KT 02/01 RMK AO1 T00240006
 
CMGB - Granby, Quebec, Canada
Distance from station: NNW 65mi, 105km
Updated: Wed, 17-Oct-2018 12:30am EDT

 Wind from SSW
Wind: SSW 2 mph , 4 km/h
Temperature: 43°F , 6°C
Dew Point: 36°F , 2°C
Humidity: 76%
2018/10/17 04:30 CMGB 170430Z AUTO 21002KT 06/02 RMK AO1 SLP114 T00620018 58013
CYSC - Sherbrooke, Quebec, Canada
Distance from station: NNE 69mi, 112km
Updated: Wed, 17-Oct-2018 12:00am EDT
Overcast
Overcast
 Wind from S
Wind: S 3 mph , 6 km/h
Temperature: 37°F , 3°C
Dew Point: 32°F , 0°C
Humidity: 81%
Barometer: 29.87 inHg , 1011.5 hPa
Clouds: Overcast
Visibility: 9 miles , 14 km
Cloud details: Partly cloudy 3600 ft
Mostly cloudy 7500 ft
Overcast 8900 ft
2018/10/17 04:00 CYSC 170400Z AUTO 17003KT 9SM SCT036 BKN075 OVC089 03/M00 A2987 RMK SLP125
 
KIZG - Fryeburg, Maine, USA
Distance from station: ESE 72mi, 117km
Updated: Tue, 16-Oct-2018 11:54pm EDT
Clear
Clear
 Wind from WSW
Wind: WSW 5 mph , 7 km/h
Temperature: 30°F , -1°C
Wind Chill: 25°F , -4°C
Dew Point: 30°F , -1°C
Humidity: 100%
Barometer: 29.95 inHg , 1014.2 hPa
Clouds: Clear
Visibility: 10 miles , 16 km
2018/10/17 03:54 KIZG 170354Z AUTO 24004KT 10SM CLR M01/M01 A2995 RMK AO2 SLP148 I1001 T10061011